Time;durP1;ratioP1;P1;durP2;ratioP2;P2;SDS_P1;SDS_P2;PMS_P1;PMS_P2;Temp;Humidity;BMP_temperature;BMP_pressure;BME280_temperature;BME280_humidity;BME280_pressure;Samples;Min_cycle;Max_cycle;Signal;HPM_P1;HPM_P2
2020/12/01 00:00:17;;;;;;;;;;;;;;;;;;5093344;28;19994;-70
2020/12/01 00:02:43;;;;;;;;;;;;;;;;;;5092177;28;19923;-70
2020/12/01 00:05:09;;;;;;;;;;;;;;;;;;5083430;28;19924;-70
2020/12/01 00:07:34;;;;;;;;;;;;;;;;;;5087352;28;19938;-70
2020/12/01 00:10:00;;;;;;;;;;;;;;;;;;5058801;28;20335;-70
2020/12/01 00:12:26;;;;;;;;;;;;;;;;;;5076023;28;19977;-69
2020/12/01 00:14:52;;;;;;;;;;;;;;;;;;5069627;28;20360;-70
2020/12/01 00:17:17;;;;;;;;;;;;;;;;;;5066706;28;19927;-70
2020/12/01 00:19:43;;;;;;;;;;;;;;;;;;5072124;28;20019;-70
2020/12/01 00:22:08;;;;;;;;;;;;;;;;;;5082191;28;20287;-70
2020/12/01 00:24:34;;;;;;;;;;;;;;;;;;5075386;28;19916;-69
2020/12/01 00:27:09;;;;;;;;;;;;;;;;;;5068724;28;19920;-69
2020/12/01 00:29:34;;;;;;;;;;;;;;;;;;5068951;28;19916;-69
2020/12/01 00:31:59;;;;;;;;;;;;;;;;;;5087598;28;19917;-70
2020/12/01 00:34:25;;;;;;;;;;;;;;;;;;5063985;28;19948;-69
2020/12/01 00:36:51;;;;;;;;;;;;;;;;;;5094625;28;20348;-69
2020/12/01 00:39:16;;;;;;;;;;;;;;;;;;5095212;28;20398;-70
2020/12/01 00:41:41;;;;;;;;;;;;;;;;;;5081373;28;19916;-70
2020/12/01 00:44:07;;;;;;;;;;;;;;;;;;5091747;28;19920;-69
2020/12/01 00:46:32;;;;;;;;;;;;;;;;;;5091904;28;19920;-69
2020/12/01 00:48:58;;;;;;;;;;;;;;;;;;5091482;28;20016;-70
2020/12/01 00:51:25;;;;;;;;;;;;;;;;;;5074669;28;20333;-69
2020/12/01 00:53:51;;;;;;;;;;;;;;;;;;5043902;28;19936;-70
2020/12/01 00:56:20;;;;;;;;;;;;;;;;;;5037984;28;19973;-70
2020/12/01 00:58:46;;;;;;;;;;;;;;;;;;5049652;28;19920;-69
2020/12/01 01:01:22;;;;;;;;;;;;;;;;;;5089759;28;19916;-69
2020/12/01 01:03:48;;;;;;;;;;;;;;;;;;5090901;28;19924;-69
2020/12/01 01:06:13;;;;;;;;;;;;;;;;;;5092818;28;19949;-69
2020/12/01 01:08:39;;;;;;;;;;;;;;;;;;5090927;28;19920;-70
2020/12/01 01:11:05;;;;;;;;;;;;;;;;;;5091069;28;19969;-69
2020/12/01 01:13:30;;;;;;;;;;;;;;;;;;5057378;28;19927;-69
2020/12/01 01:15:56;;;;;;;;;;;;;;;;;;5090572;28;20383;-69
2020/12/01 01:18:21;;;;;;;;;;;;;;;;;;5091058;28;19920;-70
2020/12/01 01:20:47;;;;;;;;;;;;;;;;;;5073962;28;20237;-70
2020/12/01 01:23:12;;;;;;;;;;;;;;;;;;5090674;28;19938;-69
2020/12/01 01:25:38;;;;;;;;;;;;;;;;;;5107820;28;20263;-69
2020/12/01 01:28:03;;;;;;;;;;;;;;;;;;5092302;28;20364;-70
2020/12/01 01:30:29;;;;;;;;;;;;;;;;;;5107015;28;19920;-70
2020/12/01 01:32:55;;;;;;;;;;;;;;;;;;5057292;28;20374;-69
2020/12/01 01:35:21;;;;;;;;;;;;;;;;;;5090751;28;19920;-69
2020/12/01 01:37:46;;;;;;;;;;;;;;;;;;5095961;28;19923;-70
2020/12/01 01:40:19;;;;;;;;;;;;;;;;;;5104850;28;20003;-70
2020/12/01 01:42:45;;;;;;;;;;;;;;;;;;5091074;28;19923;-70
2020/12/01 01:45:11;;;;;;;;;;;;;;;;;;5090435;28;19916;-70
2020/12/01 01:47:36;;;;;;;;;;;;;;;;;;5090510;28;19916;-69
2020/12/01 01:50:08;;;;;;;;;;;;;;;;;;5092680;28;19977;-69
2020/12/01 01:52:35;;;;;;;;;;;;;;;;;;5096112;28;19916;-69
2020/12/01 01:55:02;;;;;;;;;;;;;;;;;;5094790;28;20015;-70
2020/12/01 01:57:28;;;;;;;;;;;;;;;;;;5078008;28;19924;-69
2020/12/01 01:59:54;;;;;;;;;;;;;;;;;;5077586;28;19923;-69
2020/12/01 02:02:19;;;;;;;;;;;;;;;;;;5078204;28;19927;-69
2020/12/01 02:04:45;;;;;;;;;;;;;;;;;;5094577;28;20354;-69
2020/12/01 02:07:10;;;;;;;;;;;;;;;;;;5078068;28;19920;-69
2020/12/01 02:09:42;;;;;;;;;;;;;;;;;;5077648;28;20054;-70
2020/12/01 02:12:07;;;;;;;;;;;;;;;;;;5094241;28;20037;-70
2020/12/01 02:14:37;;;;;;;;;;;;;;;;;;5093669;28;20034;-69
2020/12/01 02:17:12;;;;;;;;;;;;;;;;;;5077358;28;19920;-70
2020/12/01 02:19:38;;;;;;;;;;;;;;;;;;5095270;28;19992;-70
2020/12/01 02:22:03;;;;;;;;;;;;;;;;;;5111372;28;19916;-69
2020/12/01 02:24:30;;;;;;;;;;;;;;;;;;5094218;28;19942;-69
2020/12/01 02:26:58;;;;;;;;;;;;;;;;;;5079943;28;20006;-69
2020/12/01 02:29:27;;;;;;;;;;;;;;;;;;5093380;28;19924;-70
2020/12/01 02:31:53;;;;;;;;;;;;;;;;;;5096553;28;19928;-69
2020/12/01 02:34:21;;;;;;;;;;;;;;;;;;5060361;28;19924;-69
2020/12/01 02:36:47;;;;;;;;;;;;;;;;;;5087171;28;19921;-69
2020/12/01 02:39:13;;;;;;;;;;;;;;;;;;5098709;28;19923;-70
2020/12/01 02:41:38;;;;;;;;;;;;;;;;;;5090317;28;19950;-69
2020/12/01 02:44:04;;;;;;;;;;;;;;;;;;5056887;28;19920;-69
2020/12/01 02:46:34;;;;;;;;;;;;;;;;;;5090257;28;20001;-69
2020/12/01 02:49:00;;;;;;;;;;;;;;;;;;5089465;28;19955;-69
2020/12/01 02:51:26;;;;;;;;;;;;;;;;;;5056771;28;19982;-69
2020/12/01 02:53:51;;;;;;;;;;;;;;;;;;5073291;28;19920;-69
2020/12/01 02:56:17;;;;;;;;;;;;;;;;;;5074740;28;20368;-69
2020/12/01 02:58:42;;;;;;;;;;;;;;;;;;5056258;28;19916;-69
2020/12/01 03:01:08;;;;;;;;;;;;;;;;;;5055999;28;19924;-69
2020/12/01 03:03:33;;;;;;;;;;;;;;;;;;5056782;28;19917;-69
2020/12/01 03:05:59;;;;;;;;;;;;;;;;;;5090403;28;19928;-70
2020/12/01 03:08:24;;;;;;;;;;;;;;;;;;5073345;28;19916;-70
2020/12/01 03:10:50;;;;;;;;;;;;;;;;;;5073049;28;19923;-69
2020/12/01 03:13:15;;;;;;;;;;;;;;;;;;5040156;28;20300;-70
2020/12/01 03:15:42;;;;;;;;;;;;;;;;;;5056466;28;20318;-69
2020/12/01 03:18:08;;;;;;;;;;;;;;;;;;5073420;28;19917;-69
2020/12/01 03:20:33;;;;;;;;;;;;;;;;;;5056339;28;19916;-70
2020/12/01 03:22:59;;;;;;;;;;;;;;;;;;5056418;28;19921;-69
2020/12/01 03:25:25;;;;;;;;;;;;;;;;;;5074373;28;19916;-69
2020/12/01 03:27:50;;;;;;;;;;;;;;;;;;5090221;28;20007;-70
2020/12/01 03:30:16;;;;;;;;;;;;;;;;;;5086512;28;19998;-69
2020/12/01 03:32:41;;;;;;;;;;;;;;;;;;5090056;28;19928;-69
2020/12/01 03:35:07;;;;;;;;;;;;;;;;;;5039769;28;19921;-69
2020/12/01 03:37:32;;;;;;;;;;;;;;;;;;5056602;28;20044;-69
2020/12/01 03:39:58;;;;;;;;;;;;;;;;;;5072868;28;19920;-69
2020/12/01 03:42:23;;;;;;;;;;;;;;;;;;5090011;28;19923;-69
2020/12/01 03:44:49;;;;;;;;;;;;;;;;;;5074673;28;19920;-69
2020/12/01 03:47:14;;;;;;;;;;;;;;;;;;5091161;28;19920;-69
2020/12/01 03:49:39;;;;;;;;;;;;;;;;;;5077505;28;19916;-69
2020/12/01 03:52:05;;;;;;;;;;;;;;;;;;5079357;28;20464;-68
2020/12/01 03:54:31;;;;;;;;;;;;;;;;;;5095830;28;19920;-69
2020/12/01 03:56:57;;;;;;;;;;;;;;;;;;5078648;28;19924;-69
2020/12/01 03:59:23;;;;;;;;;;;;;;;;;;5077635;28;19966;-69
2020/12/01 04:01:49;;;;;;;;;;;;;;;;;;5044680;28;20320;-69
2020/12/01 04:04:14;;;;;;;;;;;;;;;;;;5076600;28;19960;-69
2020/12/01 04:06:40;;;;;;;;;;;;;;;;;;5075064;28;19917;-69
2020/12/01 04:09:05;;;;;;;;;;;;;;;;;;5092105;28;19916;-69
2020/12/01 04:11:31;;;;;;;;;;;;;;;;;;5077357;28;20418;-69
2020/12/01 04:13:56;;;;;;;;;;;;;;;;;;5058893;28;19927;-69
2020/12/01 04:16:22;;;;;;;;;;;;;;;;;;5042336;28;20364;-69
2020/12/01 04:18:47;;;;;;;;;;;;;;;;;;5068070;28;19921;-69
2020/12/01 04:21:13;;;;;;;;;;;;;;;;;;5077481;28;19943;-69
2020/12/01 04:23:38;;;;;;;;;;;;;;;;;;5042204;28;20323;-69
2020/12/01 04:26:04;;;;;;;;;;;;;;;;;;5042664;28;19932;-70
2020/12/01 04:28:29;;;;;;;;;;;;;;;;;;5077063;28;19921;-69
2020/12/01 04:30:55;;;;;;;;;;;;;;;;;;5075327;28;19916;-69
2020/12/01 04:33:20;;;;;;;;;;;;;;;;;;5056414;28;19921;-69
2020/12/01 04:35:46;;;;;;;;;;;;;;;;;;5074023;28;19916;-69
2020/12/01 04:38:11;;;;;;;;;;;;;;;;;;5039112;28;20244;-70
2020/12/01 04:40:38;;;;;;;;;;;;;;;;;;5055511;28;20697;-70
2020/12/01 04:43:23;;;;;;;;;;;;;;;;;;5088988;28;19932;-69
2020/12/01 04:45:50;;;;;;;;;;;;;;;;;;5065021;28;19920;-70
2020/12/01 04:48:30;;;;;;;;;;;;;;;;;;5102386;28;19923;-70
2020/12/01 04:50:57;;;;;;;;;;;;;;;;;;5101790;28;19999;-70
2020/12/01 04:53:41;;;;;;;;;;;;;;;;;;5055024;28;19920;-69
2020/12/01 04:56:26;;;;;;;;;;;;;;;;;;5043101;28;19916;-70
2020/12/01 04:58:51;;;;;;;;;;;;;;;;;;5071935;28;20330;-70
2020/12/01 05:01:18;;;;;;;;;;;;;;;;;;5088811;28;20003;-69
2020/12/01 05:04:03;;;;;;;;;;;;;;;;;;5071131;28;19970;-70
2020/12/01 05:06:42;;;;;;;;;;;;;;;;;;5072723;28;19981;-70
2020/12/01 05:09:12;;;;;;;;;;;;;;;;;;5055829;28;19931;-70
2020/12/01 05:11:41;;;;;;;;;;;;;;;;;;5054757;28;20011;-69
2020/12/01 05:14:25;;;;;;;;;;;;;;;;;;5086939;28;19977;-70
2020/12/01 05:17:07;;;;;;;;;;;;;;;;;;5054634;28;19916;-69
2020/12/01 05:19:43;;;;;;;;;;;;;;;;;;5070616;28;19952;-70
2020/12/01 05:22:09;;;;;;;;;;;;;;;;;;5071140;28;19931;-70
2020/12/01 05:24:43;;;;;;;;;;;;;;;;;;5053775;28;20383;-69
2020/12/01 05:27:22;;;;;;;;;;;;;;;;;;5054478;28;20320;-70
2020/12/01 05:29:55;;;;;;;;;;;;;;;;;;5041992;28;20003;-70
2020/12/01 05:32:24;;;;;;;;;;;;;;;;;;5062479;28;20376;-70
2020/12/01 05:34:51;;;;;;;;;;;;;;;;;;5070479;28;20368;-70
2020/12/01 05:37:17;;;;;;;;;;;;;;;;;;5071585;28;19996;-70
2020/12/01 05:39:45;;;;;;;;;;;;;;;;;;5085366;28;20291;-69
2020/12/01 05:42:18;;;;;;;;;;;;;;;;;;5054402;28;19963;-69
2020/12/01 05:44:54;;;;;;;;;;;;;;;;;;5071515;28;19916;-70
2020/12/01 05:47:28;;;;;;;;;;;;;;;;;;5037360;28;19920;-70
2020/12/01 05:50:20;;;;;;;;;;;;;;;;;;5070482;28;19924;-70
2020/12/01 05:53:05;;;;;;;;;;;;;;;;;;5058795;28;20356;-70
2020/12/01 05:55:32;;;;;;;;;;;;;;;;;;5069947;28;19920;-70
2020/12/01 05:58:05;;;;;;;;;;;;;;;;;;5070496;28;20382;-71
2020/12/01 06:00:32;;;;;;;;;;;;;;;;;;5086487;28;20364;-69
2020/12/01 06:03:09;;;;;;;;;;;;;;;;;;5070652;28;19916;-69
2020/12/01 06:05:35;;;;;;;;;;;;;;;;;;5070668;28;20391;-69
2020/12/01 06:08:03;;;;;;;;;;;;;;;;;;5070692;28;19920;-69
2020/12/01 06:10:38;;;;;;;;;;;;;;;;;;5053666;28;20308;-69
2020/12/01 06:13:12;;;;;;;;;;;;;;;;;;5034119;28;20420;-69
2020/12/01 06:15:40;;;;;;;;;;;;;;;;;;5064572;28;19921;-70
2020/12/01 06:18:15;;;;;;;;;;;;;;;;;;5066775;28;19916;-70
2020/12/01 06:20:40;;;;;;;;;;;;;;;;;;5086805;28;19916;-70
2020/12/01 06:23:06;;;;;;;;;;;;;;;;;;5037207;28;19920;-70
2020/12/01 06:25:31;;;;;;;;;;;;;;;;;;5036873;28;20308;-70
2020/12/01 06:27:57;;;;;;;;;;;;;;;;;;5053417;28;19943;-70
2020/12/01 06:30:41;;;;;;;;;;;;;;;;;;5070926;28;19916;-70
2020/12/01 06:33:25;;;;;;;;;;;;;;;;;;5052723;28;20244;-70
2020/12/01 06:36:03;;;;;;;;;;;;;;;;;;5053312;28;19928;-70
2020/12/01 06:38:44;;;;;;;;;;;;;;;;;;5074136;28;19971;-70
2020/12/01 06:41:12;;;;;;;;;;;;;;;;;;5090448;28;19921;-70
2020/12/01 06:43:47;;;;;;;;;;;;;;;;;;5072885;28;19928;-71
2020/12/01 06:46:20;;;;;;;;;;;;;;;;;;5056674;28;19921;-71
2020/12/01 06:48:46;;;;;;;;;;;;;;;;;;5041454;28;20387;-69
2020/12/01 06:51:12;;;;;;;;;;;;;;;;;;5092337;28;19916;-70
2020/12/01 06:53:38;;;;;;;;;;;;;;;;;;5035900;28;19920;-67
2020/12/01 06:56:07;;;;;;;;;;;;;;;;;;5069359;28;20264;-69
2020/12/01 06:58:34;;;;;;;;;;;;;;;;;;5071825;28;20462;-68
2020/12/01 07:01:03;;;;;;;;;;;;;;;;;;5038021;28;20393;-69
2020/12/01 07:03:29;;;;;;;;;;;;;;;;;;5055658;28;19956;-69
2020/12/01 07:05:54;;;;;;;;;;;;;;;;;;5096073;28;20296;-68
2020/12/01 07:08:25;;;;;;;;;;;;;;;;;;5015556;28;19962;-69
2020/12/01 07:11:00;;;;;;;;;;;;;;;;;;5042216;28;20418;-69
2020/12/01 07:13:55;;;;;;;;;;;;;;;;;;5072669;28;19946;-68
2020/12/01 07:16:22;;;;;;;;;;;;;;;;;;5031925;28;19928;-69
2020/12/01 07:18:48;;;;;;;;;;;;;;;;;;5038979;28;20276;-68
2020/12/01 07:21:32;;;;;;;;;;;;;;;;;;5058615;28;19920;-69
2020/12/01 07:24:06;;;;;;;;;;;;;;;;;;5067973;28;19962;-68
2020/12/01 07:26:38;;;;;;;;;;;;;;;;;;5055306;28;19916;-69
2020/12/01 07:29:20;;;;;;;;;;;;;;;;;;5036201;28;20292;-68
2020/12/01 07:31:47;;;;;;;;;;;;;;;;;;5031675;28;20023;-75
2020/12/01 07:34:20;;;;;;;;;;;;;;;;;;5073382;28;19927;-74
2020/12/01 07:36:48;;;;;;;;;;;;;;;;;;5059359;28;19956;-73
2020/12/01 07:39:16;;;;;;;;;;;;;;;;;;5053530;28;20354;-71
2020/12/01 07:42:00;;;;;;;;;;;;;;;;;;5038636;28;20303;-70
2020/12/01 07:44:27;;;;;;;;;;;;;;;;;;5067592;28;19924;-70
2020/12/01 07:47:01;;;;;;;;;;;;;;;;;;5052918;28;19996;-70
2020/12/01 07:49:27;;;;;;;;;;;;;;;;;;5028755;28;19976;-71
2020/12/01 07:51:55;;;;;;;;;;;;;;;;;;5093094;28;19924;-72
2020/12/01 07:54:21;;;;;;;;;;;;;;;;;;5072432;28;19946;-70
2020/12/01 07:56:47;;;;;;;;;;;;;;;;;;5072892;28;19924;-70
2020/12/01 07:59:13;;;;;;;;;;;;;;;;;;5071725;28;20003;-70
2020/12/01 08:01:39;;;;;;;;;;;;;;;;;;5086850;28;20435;-72
2020/12/01 08:04:18;;;;;;;;;;;;;;;;;;5027862;28;19985;-74
2020/12/01 08:06:44;;;;;;;;;;;;;;;;;;5087296;28;19923;-74
2020/12/01 08:09:10;;;;;;;;;;;;;;;;;;5054257;28;19920;-74
2020/12/01 08:11:38;;;;;;;;;;;;;;;;;;5066392;28;19916;-74
2020/12/01 08:14:04;;;;;;;;;;;;;;;;;;5053621;28;19948;-74
2020/12/01 08:16:29;;;;;;;;;;;;;;;;;;5068032;28;19924;-73
2020/12/01 08:18:55;;;;;;;;;;;;;;;;;;5089987;28;19920;-74
2020/12/01 08:21:22;;;;;;;;;;;;;;;;;;5026344;28;19935;-74
2020/12/01 08:23:48;;;;;;;;;;;;;;;;;;5052667;28;21075;-72
2020/12/01 08:26:17;;;;;;;;;;;;;;;;;;5037912;28;19941;-74
2020/12/01 08:28:47;;;;;;;;;;;;;;;;;;5056671;28;19927;-75
2020/12/01 08:31:34;;;;;;;;;;;;;;;;;;5050507;28;19936;-73
2020/12/01 08:34:22;;;;;;;;;;;;;;;;;;5065635;28;19925;-72
2020/12/01 08:36:48;;;;;;;;;;;;;;;;;;5072097;28;20016;-73
2020/12/01 08:39:26;;;;;;;;;;;;;;;;;;5056160;28;20439;-70
2020/12/01 08:41:54;;;;;;;;;;;;;;;;;;5037608;28;19968;-75
2020/12/01 08:44:28;;;;;;;;;;;;;;;;;;5037879;28;19928;-73
2020/12/01 08:46:54;;;;;;;;;;;;;;;;;;5057854;28;19916;-73
2020/12/01 08:52:21;;;;;;;;;;;;;;;;;;5067966;28;19917;-73
2020/12/01 08:54:51;;;;;;;;;;;;;;;;;;5054403;28;19920;-74
2020/12/01 08:57:21;;;;;;;;;;;;;;;;;;5020372;28;19951;-72
2020/12/01 09:00:05;;;;;;;;;;;;;;;;;;5052317;28;20078;-72
2020/12/01 09:02:36;;;;;;;;;;;;;;;;;;5037433;28;20295;-73
2020/12/01 09:05:02;;;;;;;;;;;;;;;;;;5004493;28;19917;-73
2020/12/01 09:07:32;;;;;;;;;;;;;;;;;;5053338;28;19916;-72
2020/12/01 09:10:18;;;;;;;;;;;;;;;;;;5052480;28;19939;-73
2020/12/01 09:12:57;;;;;;;;;;;;;;;;;;5020143;28;20277;-70
2020/12/01 09:15:43;;;;;;;;;;;;;;;;;;5066422;28;19928;-68
2020/12/01 09:18:36;;;;;;;;;;;;;;;;;;5015114;28;19924;-68
2020/12/01 09:23:56;;;;;;;;;;;;;;;;;;5054091;28;20062;-68
2020/12/01 09:26:22;;;;;;;;;;;;;;;;;;5083874;28;20061;-69
2020/12/01 09:28:48;;;;;;;;;;;;;;;;;;5025736;28;19928;-68
2020/12/01 09:31:14;;;;;;;;;;;;;;;;;;5054045;28;19924;-68
2020/12/01 09:33:40;;;;;;;;;;;;;;;;;;5049682;28;20400;-69
2020/12/01 09:36:05;;;;;;;;;;;;;;;;;;5026894;28;20063;-68
2020/12/01 09:38:31;;;;;;;;;;;;;;;;;;5043668;28;19940;-68
2020/12/01 09:40:56;;;;;;;;;;;;;;;;;;5043040;28;19920;-69
2020/12/01 09:43:34;;;;;;;;;;;;;;;;;;5056801;28;20379;-69
2020/12/01 09:46:05;;;;;;;;;;;;;;;;;;5028204;28;20008;-70
2020/12/01 09:48:35;;;;;;;;;;;;;;;;;;5023809;28;19917;-69
2020/12/01 09:51:01;;;;;;;;;;;;;;;;;;5022531;28;19960;-69
2020/12/01 09:53:54;;;;;;;;;;;;;;;;;;5045149;28;19921;-69
2020/12/01 09:56:35;;;;;;;;;;;;;;;;;;5045258;28;19925;-68
2020/12/01 10:09:46;;;;;;;;;;;;;;;;;;5016140;28;19917;-68
2020/12/01 10:23:54;;;;;;;;;;;;;;;;;;5049304;28;19921;-73
2020/12/01 10:25:58;;;;;;;;;;;;;;;;;;5056909;28;19927;-70
2020/12/01 10:34:23;;;;;;;;;;;;;;;;;;5024901;28;20047;-70
2020/12/01 10:36:55;;;;;;;;;;;;;;;;;;5024473;28;19922;-71
2020/12/01 10:39:21;;;;;;;;;;;;;;;;;;5046693;28;19917;-72
2020/12/01 10:41:47;;;;;;;;;;;;;;;;;;5016027;28;19921;-72
2020/12/01 10:44:13;;;;;;;;;;;;;;;;;;5013645;28;20285;-68
2020/12/01 10:46:40;;;;;;;;;;;;;;;;;;5038953;28;20088;-69
2020/12/01 10:49:05;;;;;;;;;;;;;;;;;;5034518;28;19921;-71
2020/12/01 10:51:32;;;;;;;;;;;;;;;;;;5037007;28;20008;-72
2020/12/01 10:53:58;;;;;;;;;;;;;;;;;;5040686;28;19921;-75
2020/12/01 10:56:24;;;;;;;;;;;;;;;;;;5041500;28;19917;-74
2020/12/01 10:58:49;;;;;;;;;;;;;;;;;;5056596;28;19921;-76
2020/12/01 11:01:15;;;;;;;;;;;;;;;;;;5056398;28;19967;-73
2020/12/01 11:03:41;;;;;;;;;;;;;;;;;;5016761;28;20321;-74
2020/12/01 11:06:06;;;;;;;;;;;;;;;;;;5034305;28;20005;-72
2020/12/01 11:08:32;;;;;;;;;;;;;;;;;;5033976;28;19984;-73
2020/12/01 11:10:57;;;;;;;;;;;;;;;;;;5034117;28;19948;-75
2020/12/01 11:13:23;;;;;;;;;;;;;;;;;;5026939;28;19940;-74
2020/12/01 11:15:49;;;;;;;;;;;;;;;;;;5015634;28;20341;-72
2020/12/01 11:18:14;;;;;;;;;;;;;;;;;;5029623;28;20043;-76
2020/12/01 11:20:40;;;;;;;;;;;;;;;;;;5048439;28;19921;-75
2020/12/01 11:23:14;;;;;;;;;;;;;;;;;;5031179;28;20004;-73
2020/12/01 11:25:40;;;;;;;;;;;;;;;;;;5016255;28;20365;-70
2020/12/01 11:28:06;;;;;;;;;;;;;;;;;;5015942;28;19921;-74
2020/12/01 11:30:31;;;;;;;;;;;;;;;;;;4998563;28;19924;-75
2020/12/01 11:32:57;;;;;;;;;;;;;;;;;;5017941;28;20328;-76
2020/12/01 11:35:23;;;;;;;;;;;;;;;;;;5014986;28;19934;-73
2020/12/01 11:37:48;;;;;;;;;;;;;;;;;;5063747;28;20373;-74
2020/12/01 11:40:14;;;;;;;;;;;;;;;;;;5044807;28;19960;-73
2020/12/01 11:42:41;;;;;;;;;;;;;;;;;;5024513;28;19931;-71
2020/12/01 11:45:07;;;;;;;;;;;;;;;;;;5019447;28;19922;-71
2020/12/01 11:47:33;;;;;;;;;;;;;;;;;;5051323;28;19928;-73
2020/12/01 11:49:58;;;;;;;;;;;;;;;;;;5021624;28;19925;-72
2020/12/01 11:52:25;;;;;;;;;;;;;;;;;;5046210;28;19921;-72
2020/12/01 11:54:50;;;;;;;;;;;;;;;;;;5031363;28;19925;-71
2020/12/01 11:57:16;;;;;;;;;;;;;;;;;;5028668;28;19939;-71
2020/12/01 11:59:41;;;;;;;;;;;;;;;;;;5055022;28;19965;-72
2020/12/01 12:02:07;;;;;;;;;;;;;;;;;;5033300;28;19944;-69
2020/12/01 12:04:37;;;;;;;;;;;;;;;;;;5032187;28;19917;-73
2020/12/01 12:07:02;;;;;;;;;;;;;;;;;;5049952;28;20387;-70
2020/12/01 12:09:28;;;;;;;;;;;;;;;;;;5021429;28;20087;-69
2020/12/01 12:11:54;;;;;;;;;;;;;;;;;;5065897;28;19917;-75
2020/12/01 12:14:19;;;;;;;;;;;;;;;;;;5051447;28;19929;-73
2020/12/01 12:16:45;;;;;;;;;;;;;;;;;;5037088;28;19932;-73
2020/12/01 12:19:10;;;;;;;;;;;;;;;;;;5054669;28;19971;-72
2020/12/01 12:21:36;;;;;;;;;;;;;;;;;;5058684;28;19917;-74
2020/12/01 12:24:01;;;;;;;;;;;;;;;;;;5061932;28;19961;-74
2020/12/01 12:26:27;;;;;;;;;;;;;;;;;;5059735;28;19936;-73
2020/12/01 12:28:53;;;;;;;;;;;;;;;;;;5022367;28;19925;-70
2020/12/01 12:31:19;;;;;;;;;;;;;;;;;;5043714;28;19917;-69
2020/12/01 12:33:45;;;;;;;;;;;;;;;;;;5034441;28;19975;-70
2020/12/01 12:36:11;;;;;;;;;;;;;;;;;;5056772;28;19920;-71
2020/12/01 12:38:37;;;;;;;;;;;;;;;;;;5056640;28;19998;-73
2020/12/01 12:41:02;;;;;;;;;;;;;;;;;;5038719;28;19921;-70
2020/12/01 12:43:29;;;;;;;;;;;;;;;;;;5032494;28;20293;-69
2020/12/01 12:45:55;;;;;;;;;;;;;;;;;;5036181;28;19928;-72
2020/12/01 12:48:21;;;;;;;;;;;;;;;;;;5035908;28;19916;-71
2020/12/01 12:50:47;;;;;;;;;;;;;;;;;;5033828;28;20016;-70
2020/12/01 12:53:13;;;;;;;;;;;;;;;;;;5049841;28;20332;-72
2020/12/01 12:55:39;;;;;;;;;;;;;;;;;;5032088;28;19949;-72
2020/12/01 12:58:04;;;;;;;;;;;;;;;;;;5029524;28;20281;-70
2020/12/01 13:00:30;;;;;;;;;;;;;;;;;;5078271;28;19927;-70
2020/12/01 13:02:56;;;;;;;;;;;;;;;;;;5022606;28;19925;-71
2020/12/01 13:05:21;;;;;;;;;;;;;;;;;;5024625;28;19976;-70
2020/12/01 13:07:47;;;;;;;;;;;;;;;;;;5030697;28;20280;-72
2020/12/01 13:10:13;;;;;;;;;;;;;;;;;;5030481;28;19988;-71
2020/12/01 13:12:39;;;;;;;;;;;;;;;;;;5031754;28;20007;-72
2020/12/01 13:15:05;;;;;;;;;;;;;;;;;;5013105;28;20411;-69
2020/12/01 13:17:30;;;;;;;;;;;;;;;;;;5063631;28;19943;-72
2020/12/01 13:19:56;;;;;;;;;;;;;;;;;;5062635;28;19925;-73
2020/12/01 13:22:22;;;;;;;;;;;;;;;;;;5048296;28;20265;-71
2020/12/01 13:24:48;;;;;;;;;;;;;;;;;;5011673;28;19928;-71
2020/12/01 13:27:14;;;;;;;;;;;;;;;;;;5048572;28;20039;-70
2020/12/01 13:29:40;;;;;;;;;;;;;;;;;;5047918;28;20021;-72
2020/12/01 13:32:08;;;;;;;;;;;;;;;;;;5044585;28;19931;-72
2020/12/01 13:34:34;;;;;;;;;;;;;;;;;;5050757;28;20344;-71
2020/12/01 13:36:59;;;;;;;;;;;;;;;;;;5037575;28;19931;-72
2020/12/01 13:39:25;;;;;;;;;;;;;;;;;;5053202;28;20376;-72
2020/12/01 13:41:51;;;;;;;;;;;;;;;;;;5087308;28;20023;-75
2020/12/01 13:44:19;;;;;;;;;;;;;;;;;;5055500;28;20280;-75
2020/12/01 13:46:45;;;;;;;;;;;;;;;;;;5053252;28;19928;-74
2020/12/01 13:49:13;;;;;;;;;;;;;;;;;;5045192;28;19929;-73
2020/12/01 13:51:38;;;;;;;;;;;;;;;;;;5055246;28;20404;-74
2020/12/01 13:54:05;;;;;;;;;;;;;;;;;;5092009;28;20376;-75
2020/12/01 13:56:31;;;;;;;;;;;;;;;;;;5042400;28;19917;-75
2020/12/01 13:58:58;;;;;;;;;;;;;;;;;;5045174;28;19924;-75
2020/12/01 14:01:25;;;;;;;;;;;;;;;;;;5026484;28;19939;-75
2020/12/01 14:03:55;;;;;;;;;;;;;;;;;;5054789;28;19924;-70
2020/12/01 14:06:20;;;;;;;;;;;;;;;;;;5089766;28;19928;-72
2020/12/01 14:08:46;;;;;;;;;;;;;;;;;;5047736;28;19920;-70
2020/12/01 14:11:13;;;;;;;;;;;;;;;;;;5020105;28;19956;-70
2020/12/01 14:13:41;;;;;;;;;;;;;;;;;;5038093;28;19931;-70
2020/12/01 14:16:08;;;;;;;;;;;;;;;;;;5052027;28;19925;-69
2020/12/01 14:18:33;;;;;;;;;;;;;;;;;;5035257;28;19923;-71
2020/12/01 14:21:01;;;;;;;;;;;;;;;;;;5022513;28;19921;-75
2020/12/01 14:23:27;;;;;;;;;;;;;;;;;;5069229;28;20045;-71
2020/12/01 14:25:53;;;;;;;;;;;;;;;;;;5055956;28;19923;-75
2020/12/01 14:28:19;;;;;;;;;;;;;;;;;;5070339;28;19921;-70
2020/12/01 14:30:45;;;;;;;;;;;;;;;;;;5068672;28;20376;-72
2020/12/01 14:33:10;;;;;;;;;;;;;;;;;;5069442;28;19920;-72
2020/12/01 14:35:39;;;;;;;;;;;;;;;;;;5059678;28;20360;-73
2020/12/01 14:38:05;;;;;;;;;;;;;;;;;;5046037;28;19932;-70
2020/12/01 14:40:32;;;;;;;;;;;;;;;;;;5060885;28;19916;-75
2020/12/01 14:43:01;;;;;;;;;;;;;;;;;;5060235;28;20394;-74
2020/12/01 14:45:26;;;;;;;;;;;;;;;;;;5039654;28;20271;-73
2020/12/01 14:48:05;;;;;;;;;;;;;;;;;;5034866;28;19917;-71
2020/12/01 14:50:30;;;;;;;;;;;;;;;;;;5053998;28;19917;-69
2020/12/01 14:53:16;;;;;;;;;;;;;;;;;;5051938;28;19924;-70
2020/12/01 14:55:54;;;;;;;;;;;;;;;;;;5023365;28;19951;-68
2020/12/01 14:58:19;;;;;;;;;;;;;;;;;;5025167;28;19944;-70
2020/12/01 15:00:48;;;;;;;;;;;;;;;;;;5068194;28;19916;-70
2020/12/01 15:03:24;;;;;;;;;;;;;;;;;;5036465;28;19917;-70
2020/12/01 15:05:53;;;;;;;;;;;;;;;;;;5035122;28;20014;-70
2020/12/01 15:08:34;;;;;;;;;;;;;;;;;;5038066;28;19943;-70
2020/12/01 15:11:14;;;;;;;;;;;;;;;;;;5063530;28;19998;-76
2020/12/01 15:13:41;;;;;;;;;;;;;;;;;;5057771;28;19927;-75
2020/12/01 15:16:09;;;;;;;;;;;;;;;;;;5035999;28;19917;-72
2020/12/01 15:18:34;;;;;;;;;;;;;;;;;;5061481;28;19931;-72
2020/12/01 15:21:00;;;;;;;;;;;;;;;;;;5065281;28;19924;-72
2020/12/01 15:23:25;;;;;;;;;;;;;;;;;;5072276;28;20050;-71
2020/12/01 15:25:51;;;;;;;;;;;;;;;;;;5055576;28;20011;-72
2020/12/01 15:28:29;;;;;;;;;;;;;;;;;;5065656;28;20424;-72
2020/12/01 15:30:55;;;;;;;;;;;;;;;;;;5050071;28;20025;-72
2020/12/01 15:33:21;;;;;;;;;;;;;;;;;;5068210;28;20403;-72
2020/12/01 15:35:48;;;;;;;;;;;;;;;;;;5053358;28;20304;-73
2020/12/01 15:38:20;;;;;;;;;;;;;;;;;;5055208;28;19916;-72
2020/12/01 15:40:46;;;;;;;;;;;;;;;;;;5072254;28;19931;-73
2020/12/01 15:43:20;;;;;;;;;;;;;;;;;;5038145;28;19916;-69
2020/12/01 15:45:46;;;;;;;;;;;;;;;;;;5051252;28;20033;-72
2020/12/01 15:48:14;;;;;;;;;;;;;;;;;;5022700;28;20503;-72
2020/12/01 15:50:40;;;;;;;;;;;;;;;;;;5071540;28;19920;-74
2020/12/01 15:53:24;;;;;;;;;;;;;;;;;;5038535;28;19917;-68
2020/12/01 15:55:50;;;;;;;;;;;;;;;;;;5055676;28;20395;-71
2020/12/01 15:58:16;;;;;;;;;;;;;;;;;;5057746;28;19929;-72
2020/12/01 16:00:57;;;;;;;;;;;;;;;;;;5071143;28;20262;-72
2020/12/01 16:03:25;;;;;;;;;;;;;;;;;;5058988;28;20391;-73
2020/12/01 16:06:01;;;;;;;;;;;;;;;;;;5024336;28;19923;-73
2020/12/01 16:08:39;;;;;;;;;;;;;;;;;;5051661;28;19925;-73
2020/12/01 16:11:07;;;;;;;;;;;;;;;;;;5071115;28;19917;-73
2020/12/01 16:13:36;;;;;;;;;;;;;;;;;;5054909;28;19920;-75
2020/12/01 16:16:10;;;;;;;;;;;;;;;;;;5055039;28;19966;-73
2020/12/01 16:18:45;;;;;;;;;;;;;;;;;;5080640;28;19923;-73
2020/12/01 16:21:11;;;;;;;;;;;;;;;;;;5071890;28;19920;-73
2020/12/01 16:23:40;;;;;;;;;;;;;;;;;;5081341;28;20339;-74
2020/12/01 16:26:06;;;;;;;;;;;;;;;;;;5088902;28;19985;-75
2020/12/01 16:28:32;;;;;;;;;;;;;;;;;;5074777;28;19966;-75
2020/12/01 16:30:58;;;;;;;;;;;;;;;;;;5066286;28;20386;-73
2020/12/01 16:33:23;;;;;;;;;;;;;;;;;;5088502;28;19967;-75
2020/12/01 16:35:50;;;;;;;;;;;;;;;;;;5064307;28;19921;-74
2020/12/01 16:38:30;;;;;;;;;;;;;;;;;;5036978;28;19965;-74
2020/12/01 16:40:57;;;;;;;;;;;;;;;;;;5048369;28;20318;-74
2020/12/01 16:43:30;;;;;;;;;;;;;;;;;;5071216;28;20018;-73
2020/12/01 16:46:17;;;;;;;;;;;;;;;;;;5087536;28;20299;-71
2020/12/01 16:49:18;;;;;;;;;;;;;;;;;;5070584;28;19916;-71
2020/12/01 16:51:51;;;;;;;;;;;;;;;;;;4993546;28;20413;-71
2020/12/01 16:54:33;;;;;;;;;;;;;;;;;;5044746;28;19927;-73
2020/12/01 16:57:20;;;;;;;;;;;;;;;;;;5056841;28;20356;-71
2020/12/01 17:00:04;;;;;;;;;;;;;;;;;;5059520;28;20309;-71
2020/12/01 17:02:49;;;;;;;;;;;;;;;;;;5061040;28;19936;-72
2020/12/01 17:05:29;;;;;;;;;;;;;;;;;;5054427;28;20288;-72
2020/12/01 17:07:56;;;;;;;;;;;;;;;;;;5057943;28;19916;-71
2020/12/01 17:10:23;;;;;;;;;;;;;;;;;;5054268;28;20015;-72
2020/12/01 17:12:51;;;;;;;;;;;;;;;;;;5087096;28;19916;-71
2020/12/01 17:15:17;;;;;;;;;;;;;;;;;;5070021;28;19946;-70
2020/12/01 17:17:45;;;;;;;;;;;;;;;;;;5054308;28;20352;-71
2020/12/01 17:20:10;;;;;;;;;;;;;;;;;;5054460;28;19956;-72
2020/12/01 17:22:36;;;;;;;;;;;;;;;;;;5079203;28;19963;-72
2020/12/01 17:25:02;;;;;;;;;;;;;;;;;;5054566;28;19917;-73
2020/12/01 17:27:28;;;;;;;;;;;;;;;;;;5048395;28;19989;-71
2020/12/01 17:29:54;;;;;;;;;;;;;;;;;;5067711;28;20330;-72